createdAt,value
2022-10-01T00:00:17.362Z,10.70
2022-10-01T00:01:17.386Z,10.80
2022-10-01T00:02:17.317Z,10.76
2022-10-01T00:03:17.389Z,10.76
2022-10-01T00:04:17.295Z,10.73
2022-10-01T00:05:17.307Z,10.75
2022-10-01T00:06:17.275Z,10.72
2022-10-01T00:07:17.264Z,10.64
2022-10-01T00:08:17.257Z,10.67
2022-10-01T00:09:17.243Z,10.65
2022-10-01T00:10:17.258Z,10.62
2022-10-01T00:11:17.219Z,10.68
2022-10-01T00:12:17.213Z,10.67
2022-10-01T00:13:17.219Z,10.61
2022-10-01T00:14:17.187Z,10.61
2022-10-01T00:15:17.203Z,10.58
2022-10-01T00:16:17.218Z,10.52
2022-10-01T00:17:17.156Z,10.52
2022-10-01T00:18:17.142Z,10.58
2022-10-01T00:19:17.136Z,10.49
2022-10-01T00:20:17.117Z,10.58
2022-10-01T00:21:17.146Z,10.60
2022-10-01T00:22:17.104Z,10.52
2022-10-01T00:23:17.099Z,10.48
2022-10-01T00:24:17.090Z,10.49
2022-10-01T00:25:17.072Z,10.48
2022-10-01T00:26:17.086Z,10.46
2022-10-01T00:27:17.045Z,10.42
2022-10-01T00:28:17.068Z,10.46
2022-10-01T00:29:17.045Z,10.43
2022-10-01T00:30:17.014Z,10.45
2022-10-01T00:31:17.060Z,10.38
2022-10-01T00:32:17.022Z,10.42
2022-10-01T00:33:16.987Z,10.39
2022-10-01T00:34:16.967Z,10.43
2022-10-01T00:35:16.958Z,10.48
2022-10-01T00:36:16.948Z,10.43
2022-10-01T00:37:16.967Z,10.30
2022-10-01T00:38:16.924Z,10.26
2022-10-01T00:39:16.914Z,10.31
2022-10-01T00:40:16.908Z,10.31
2022-10-01T00:41:16.893Z,10.31
2022-10-01T00:42:16.907Z,10.24
2022-10-01T00:43:16.875Z,10.24
2022-10-01T00:44:16.861Z,10.36
2022-10-01T00:45:16.871Z,10.27
2022-10-01T00:46:16.917Z,10.26
2022-10-01T00:47:16.851Z,10.26
2022-10-01T00:48:16.817Z,10.24
2022-10-01T00:49:16.832Z,10.23
2022-10-01T00:50:16.797Z,10.24
2022-10-01T00:51:16.794Z,10.26
2022-10-01T00:52:16.781Z,10.21
2022-10-01T00:53:16.773Z,10.23
2022-10-01T00:54:16.791Z,10.21
2022-10-01T00:55:16.744Z,10.17
2022-10-01T00:56:16.732Z,10.17
2022-10-01T00:57:16.723Z,10.21
2022-10-01T00:58:16.708Z,10.09
2022-10-01T00:59:16.698Z,10.16
2022-10-01T01:00:16.718Z,10.10
2022-10-01T01:01:16.733Z,10.09
2022-10-01T01:02:16.763Z,10.10
2022-10-01T01:03:16.659Z,10.09
2022-10-01T01:04:16.902Z,10.10
2022-10-01T01:05:16.670Z,10.16
2022-10-01T01:06:16.647Z,10.06
2022-10-01T01:07:16.613Z,10.10
2022-10-01T01:08:16.603Z,10.05
2022-10-01T01:09:16.596Z,10.14
2022-10-01T01:10:16.601Z,10.05
2022-10-01T01:11:16.598Z,10.01
2022-10-01T01:12:16.561Z,10.06
2022-10-01T01:13:16.554Z,10.01
2022-10-01T01:14:16.533Z,10.01
2022-10-01T01:15:16.543Z,9.94
2022-10-01T01:16:16.630Z,9.99
2022-10-01T01:17:16.525Z,10.08
2022-10-01T01:18:16.495Z,10.05
2022-10-01T01:19:16.482Z,10.03
2022-10-01T01:20:16.474Z,10.03
2022-10-01T01:21:16.492Z,10.01
2022-10-01T01:22:16.475Z,9.98
2022-10-01T01:23:16.450Z,10.01
2022-10-01T01:24:16.431Z,10.01
2022-10-01T01:25:16.422Z,10.02
2022-10-01T01:26:16.430Z,9.96
2022-10-01T01:27:16.409Z,10.01
2022-10-01T01:28:16.409Z,9.98
2022-10-01T01:29:16.379Z,9.98
2022-10-01T01:30:16.366Z,9.91
2022-10-01T01:31:16.426Z,9.81
2022-10-01T01:32:16.341Z,9.87
2022-10-01T01:33:16.357Z,9.87
2022-10-01T01:34:16.342Z,9.88
2022-10-01T01:35:16.332Z,9.84
2022-10-01T01:36:16.313Z,9.81
2022-10-01T01:37:16.322Z,9.88
2022-10-01T01:38:16.282Z,9.85
2022-10-01T01:39:16.277Z,9.81
2022-10-01T01:40:16.263Z,9.87
2022-10-01T01:41:16.248Z,9.83
2022-10-01T01:42:16.255Z,9.81
2022-10-01T01:43:16.223Z,9.83
2022-10-01T01:44:16.239Z,9.83
2022-10-01T01:45:16.212Z,9.78
2022-10-01T01:46:16.259Z,9.80
2022-10-01T01:47:16.184Z,9.80
2022-10-01T01:48:16.169Z,9.81
2022-10-01T01:49:16.269Z,9.80
2022-10-01T01:50:16.156Z,9.78
2022-10-01T01:51:16.166Z,9.77
2022-10-01T01:52:16.142Z,9.72
2022-10-01T01:53:16.120Z,9.69
2022-10-01T01:54:16.105Z,9.80
2022-10-01T01:55:16.101Z,9.73
2022-10-01T01:56:16.084Z,9.70
2022-10-01T01:57:16.099Z,9.70
2022-10-01T01:58:16.065Z,9.63
2022-10-01T01:59:16.051Z,9.75
2022-10-01T02:00:16.039Z,9.60
2022-10-01T02:01:16.096Z,9.69
2022-10-01T02:02:16.100Z,9.70
2022-10-01T02:03:16.007Z,9.66
2022-10-01T02:04:15.997Z,9.55
2022-10-01T02:05:16.027Z,9.60
2022-10-01T02:06:16.009Z,9.63
2022-10-01T02:07:15.992Z,9.62
2022-10-01T02:08:15.960Z,9.60
2022-10-01T02:09:15.966Z,9.60
2022-10-01T02:10:15.935Z,9.54
2022-10-01T02:11:15.953Z,9.54
2022-10-01T02:12:15.912Z,9.59
2022-10-01T02:13:15.902Z,9.59
2022-10-01T02:14:15.891Z,9.63
2022-10-01T02:15:15.883Z,9.57
2022-10-01T02:16:15.943Z,9.62
2022-10-01T02:17:15.864Z,9.59
2022-10-01T02:18:15.845Z,9.69
2022-10-01T02:19:15.835Z,9.59
2022-10-01T02:20:15.825Z,9.57
2022-10-01T02:21:15.852Z,9.66
2022-10-01T02:22:15.805Z,9.55
2022-10-01T02:23:15.793Z,9.55
2022-10-01T02:24:15.787Z,9.54
2022-10-01T02:25:15.773Z,9.54
2022-10-01T02:26:15.781Z,9.55
2022-10-01T02:27:15.746Z,9.54
2022-10-01T02:28:15.815Z,9.59
2022-10-01T02:29:15.759Z,9.57
2022-10-01T02:30:15.725Z,9.54
2022-10-01T02:31:15.824Z,9.54
2022-10-01T02:32:15.696Z,9.57
2022-10-01T02:33:15.691Z,9.54
2022-10-01T02:34:20.004Z,9.59
2022-10-01T02:35:15.688Z,9.55
2022-10-01T02:36:15.652Z,9.51
2022-10-01T02:37:15.659Z,9.55
2022-10-01T02:38:15.636Z,9.57
2022-10-01T02:39:15.622Z,9.54
2022-10-01T02:40:15.637Z,9.48
2022-10-01T02:41:15.599Z,9.59
2022-10-01T02:42:15.587Z,9.52
2022-10-01T02:43:15.579Z,9.44
2022-10-01T02:44:15.566Z,9.42
2022-10-01T02:45:15.580Z,9.59
2022-10-01T02:46:15.624Z,9.48
2022-10-01T02:47:15.536Z,9.50
2022-10-01T02:48:15.528Z,9.52
2022-10-01T02:49:15.533Z,9.45
2022-10-01T02:50:15.503Z,9.50
2022-10-01T02:51:15.491Z,9.40
2022-10-01T02:52:15.525Z,9.50
2022-10-01T02:53:15.490Z,9.48
2022-10-01T02:54:15.459Z,9.55
2022-10-01T02:55:15.462Z,9.48
2022-10-01T02:56:15.437Z,9.51
2022-10-01T02:57:15.455Z,9.41
2022-10-01T02:58:15.411Z,9.40
2022-10-01T02:59:15.405Z,9.47
2022-10-01T03:00:15.397Z,9.45
2022-10-01T03:01:15.435Z,9.42
2022-10-01T03:02:15.595Z,9.52
2022-10-01T03:03:15.357Z,9.50
2022-10-01T03:04:15.349Z,9.42
2022-10-01T03:05:15.362Z,9.50
2022-10-01T03:06:15.324Z,9.50
2022-10-01T03:07:15.336Z,9.45
2022-10-01T03:08:15.301Z,9.51
2022-10-01T03:09:15.312Z,9.54
2022-10-01T03:10:15.281Z,9.42
2022-10-01T03:11:15.266Z,9.44
2022-10-01T03:12:15.279Z,9.42
2022-10-01T03:13:15.259Z,9.41
2022-10-01T03:14:15.238Z,9.45
2022-10-01T03:15:15.220Z,9.45
2022-10-01T03:16:15.248Z,9.42
2022-10-01T03:17:15.230Z,9.48
2022-10-01T03:18:15.199Z,9.50
2022-10-01T03:19:15.183Z,9.42
2022-10-01T03:20:15.191Z,9.50
2022-10-01T03:21:15.162Z,9.41
2022-10-01T03:22:15.167Z,9.48
2022-10-01T03:23:15.136Z,9.40
2022-10-01T03:24:15.132Z,9.45
2022-10-01T03:25:15.140Z,9.47
2022-10-01T03:26:15.102Z,9.42
2022-10-01T03:27:15.099Z,9.51
2022-10-01T03:28:15.185Z,9.36
2022-10-01T03:29:15.079Z,9.41
2022-10-01T03:30:15.088Z,9.40
2022-10-01T03:31:15.110Z,9.36
2022-10-01T03:32:15.046Z,9.48
2022-10-01T03:33:15.038Z,9.48
2022-10-01T03:34:15.020Z,9.37
2022-10-01T03:35:15.043Z,9.42
2022-10-01T03:36:14.995Z,9.37
2022-10-01T03:37:14.983Z,9.50
2022-10-01T03:38:14.970Z,9.44
2022-10-01T03:39:14.957Z,9.45
2022-10-01T03:40:14.950Z,9.37
2022-10-01T03:41:14.978Z,9.45
2022-10-01T03:42:14.949Z,9.47
2022-10-01T03:43:14.922Z,9.45
2022-10-01T03:44:14.907Z,9.42
2022-10-01T03:45:14.891Z,9.45
2022-10-01T03:46:15.005Z,9.51
2022-10-01T03:47:14.869Z,9.50
2022-10-01T03:48:14.861Z,9.42
2022-10-01T03:49:14.849Z,9.45
2022-10-01T03:50:14.844Z,9.52
2022-10-01T03:51:19.693Z,9.51
2022-10-01T03:52:15.816Z,9.47
2022-10-01T03:53:14.801Z,9.47
2022-10-01T03:54:14.812Z,9.48
2022-10-01T03:55:14.784Z,9.48
2022-10-01T03:56:14.772Z,9.40
2022-10-01T03:57:14.781Z,9.52
2022-10-01T03:58:14.751Z,9.50
2022-10-01T03:59:14.764Z,9.57
2022-10-01T04:00:14.732Z,9.47
2022-10-01T04:01:14.848Z,9.45
2022-10-01T04:02:14.835Z,9.48
2022-10-01T04:03:14.699Z,9.45
2022-10-01T04:04:14.711Z,9.50
2022-10-01T04:05:14.668Z,9.41
2022-10-01T04:06:14.666Z,9.41
2022-10-01T04:07:14.663Z,9.51
2022-10-01T04:08:14.643Z,9.52
2022-10-01T04:09:14.650Z,9.51
2022-10-01T04:10:14.619Z,9.40
2022-10-01T04:11:14.606Z,9.48
2022-10-01T04:12:14.597Z,9.44
2022-10-01T04:13:14.601Z,9.52
2022-10-01T04:14:14.599Z,9.51
2022-10-01T04:15:14.560Z,9.44
2022-10-01T04:16:14.607Z,9.45
2022-10-01T04:17:14.541Z,9.41
2022-10-01T04:18:14.532Z,9.50
2022-10-01T04:19:14.549Z,9.44
2022-10-01T04:20:14.510Z,9.52
2022-10-01T04:21:14.501Z,9.65
2022-10-01T04:22:14.490Z,9.52
2022-10-01T04:23:14.475Z,9.57
2022-10-01T04:24:14.469Z,9.57
2022-10-01T04:25:14.474Z,9.54
2022-10-01T04:26:14.444Z,9.54
2022-10-01T04:27:14.434Z,9.57
2022-10-01T04:28:14.595Z,9.57
2022-10-01T04:29:14.431Z,9.55
2022-10-01T04:30:14.422Z,9.52
2022-10-01T04:31:14.557Z,9.55
2022-10-01T04:32:14.380Z,9.60
2022-10-01T04:33:14.368Z,9.59
2022-10-01T04:34:14.359Z,9.57
2022-10-01T04:35:14.363Z,9.59
2022-10-01T04:36:14.336Z,9.59
2022-10-01T04:37:14.323Z,9.62
2022-10-01T04:38:14.341Z,9.57
2022-10-01T04:39:14.306Z,9.57
2022-10-01T04:40:14.294Z,9.63
2022-10-01T04:41:14.288Z,9.57
2022-10-01T04:42:14.276Z,9.60
2022-10-01T04:43:14.279Z,9.57
2022-10-01T04:44:14.253Z,9.57
2022-10-01T04:45:14.256Z,9.60
2022-10-01T04:46:14.281Z,9.66
2022-10-01T04:47:14.224Z,9.60
2022-10-01T04:48:14.231Z,9.66
2022-10-01T04:49:14.195Z,9.62
2022-10-01T04:50:14.183Z,9.60
2022-10-01T04:51:14.175Z,9.67
2022-10-01T04:52:14.163Z,9.70
2022-10-01T04:53:14.171Z,9.63
2022-10-01T04:54:14.141Z,9.62
2022-10-01T04:55:14.133Z,9.52
2022-10-01T04:56:14.137Z,9.72
2022-10-01T04:57:14.114Z,9.65
2022-10-01T04:58:14.123Z,9.65
2022-10-01T04:59:14.087Z,9.70
2022-10-01T05:00:14.074Z,9.66
2022-10-01T05:01:14.166Z,9.70
2022-10-01T05:02:14.105Z,9.63
2022-10-01T05:03:14.061Z,9.70
2022-10-01T05:04:14.042Z,9.59
2022-10-01T05:05:14.018Z,9.69
2022-10-01T05:06:14.035Z,9.65
2022-10-01T05:07:14.002Z,9.72
2022-10-01T05:08:14.001Z,9.70
2022-10-01T05:09:14.008Z,9.70
2022-10-01T05:10:13.969Z,9.70
2022-10-01T05:11:13.981Z,9.69
2022-10-01T05:12:13.948Z,9.66
2022-10-01T05:13:13.935Z,9.75
2022-10-01T05:14:13.928Z,9.73
2022-10-01T05:15:13.915Z,9.75
2022-10-01T05:16:13.986Z,9.77
2022-10-01T05:17:13.912Z,9.78
2022-10-01T05:18:13.882Z,9.75
2022-10-01T05:19:13.871Z,9.83
2022-10-01T05:20:13.863Z,9.78
2022-10-01T05:21:13.875Z,9.75
2022-10-01T05:22:13.870Z,9.81
2022-10-01T05:23:13.823Z,9.75
2022-10-01T05:24:13.818Z,9.72
2022-10-01T05:25:13.806Z,9.81
2022-10-01T05:26:13.795Z,9.81
2022-10-01T05:27:13.786Z,9.80
2022-10-01T05:28:16.054Z,9.80
2022-10-01T05:29:14.762Z,9.70
2022-10-01T05:30:13.758Z,9.80
2022-10-01T05:31:13.821Z,9.78
2022-10-01T05:32:13.752Z,9.75
2022-10-01T05:33:13.739Z,9.80
2022-10-01T05:34:13.793Z,9.83
2022-10-01T05:35:13.707Z,9.84
2022-10-01T05:36:13.736Z,9.83
2022-10-01T05:37:13.678Z,9.78
2022-10-01T05:38:13.684Z,9.84
2022-10-01T05:39:13.657Z,9.81
2022-10-01T05:40:13.638Z,9.88
2022-10-01T05:41:13.632Z,9.81
2022-10-01T05:42:13.622Z,9.83
2022-10-01T05:43:13.633Z,9.87
2022-10-01T05:44:13.653Z,9.81
2022-10-01T05:45:13.591Z,9.93
2022-10-01T05:46:13.610Z,9.84
2022-10-01T05:47:13.570Z,9.85
2022-10-01T05:48:13.555Z,9.87
2022-10-01T05:49:13.568Z,9.85
2022-10-01T05:50:13.558Z,9.81
2022-10-01T05:51:13.524Z,9.85
2022-10-01T05:52:13.518Z,9.99
2022-10-01T05:53:13.513Z,9.99
2022-10-01T05:54:13.495Z,9.93
2022-10-01T05:55:13.504Z,9.84
2022-10-01T05:56:13.477Z,9.84
2022-10-01T05:57:13.455Z,9.88
2022-10-01T05:58:13.454Z,9.98
2022-10-01T05:59:13.444Z,9.99
2022-10-01T06:00:13.453Z,10.02
2022-10-01T06:01:13.445Z,9.99
2022-10-01T06:02:13.592Z,9.94
2022-10-01T06:03:13.551Z,9.98
2022-10-01T06:04:13.387Z,9.98
2022-10-01T06:05:13.394Z,9.99
2022-10-01T06:06:13.380Z,10.03
2022-10-01T06:07:13.371Z,10.02
2022-10-01T06:08:13.340Z,10.03
2022-10-01T06:09:13.329Z,10.03
2022-10-01T06:10:13.319Z,10.08
2022-10-01T06:11:13.309Z,10.01
2022-10-01T06:12:17.635Z,10.03
2022-10-01T06:13:14.286Z,10.03
2022-10-01T06:14:13.281Z,10.02
2022-10-01T06:15:13.264Z,10.06
2022-10-01T06:16:13.307Z,10.06
2022-10-01T06:17:13.266Z,10.09
2022-10-01T06:18:13.231Z,10.12
2022-10-01T06:19:13.224Z,10.09
2022-10-01T06:20:13.230Z,10.05
2022-10-01T06:21:13.220Z,10.02
2022-10-01T06:22:13.223Z,10.17
2022-10-01T06:23:13.185Z,10.03
2022-10-01T06:24:13.170Z,10.08
2022-10-01T06:25:13.159Z,10.08
2022-10-01T06:26:13.180Z,10.18
2022-10-01T06:27:13.132Z,10.20
2022-10-01T06:28:13.154Z,10.17
2022-10-01T06:29:13.114Z,10.09
2022-10-01T06:30:13.670Z,10.16
2022-10-01T06:31:13.196Z,10.24
2022-10-01T06:32:13.082Z,10.24
2022-10-01T06:33:13.075Z,10.18
2022-10-01T06:34:13.060Z,10.27
2022-10-01T06:35:13.052Z,10.23
2022-10-01T06:36:13.061Z,10.23
2022-10-01T06:37:13.049Z,10.24
2022-10-01T06:38:13.022Z,10.24
2022-10-01T06:39:13.012Z,10.31
2022-10-01T06:40:13.006Z,10.31
2022-10-01T06:41:13.012Z,10.28
2022-10-01T06:42:12.973Z,10.28
2022-10-01T06:43:12.963Z,10.31
2022-10-01T06:44:12.947Z,10.28
2022-10-01T06:45:12.939Z,10.28
2022-10-01T06:46:13.031Z,10.30
2022-10-01T06:47:12.931Z,10.39
2022-10-01T06:48:12.910Z,10.41
2022-10-01T06:49:12.902Z,10.45
2022-10-01T06:50:12.892Z,10.45
2022-10-01T06:51:12.898Z,10.42
2022-10-01T06:52:12.874Z,10.42
2022-10-01T06:53:12.948Z,10.42
2022-10-01T06:54:12.845Z,10.42
2022-10-01T06:55:16.464Z,10.43
2022-10-01T06:56:12.841Z,10.45
2022-10-01T06:57:12.818Z,10.46
2022-10-01T06:58:12.802Z,10.39
2022-10-01T06:59:12.794Z,10.43
2022-10-01T07:00:12.780Z,10.55
2022-10-01T07:01:12.889Z,10.58
2022-10-01T07:02:12.790Z,10.55
2022-10-01T07:03:12.765Z,10.58
2022-10-01T07:04:12.740Z,10.55
2022-10-01T07:05:12.730Z,10.58
2022-10-01T07:06:12.728Z,10.57
2022-10-01T07:07:12.723Z,10.60
2022-10-01T07:08:12.714Z,10.64
2022-10-01T07:09:12.709Z,10.65
2022-10-01T07:10:12.672Z,10.64
2022-10-01T07:11:12.663Z,10.58
2022-10-01T07:12:12.654Z,10.70
2022-10-01T07:13:12.669Z,10.70
2022-10-01T07:14:12.631Z,10.62
2022-10-01T07:15:12.615Z,10.68
2022-10-01T07:16:12.635Z,10.67
2022-10-01T07:17:12.605Z,10.72
2022-10-01T07:18:12.609Z,10.72
2022-10-01T07:19:12.575Z,10.80
2022-10-01T07:20:12.567Z,10.76
2022-10-01T07:21:12.554Z,10.79
2022-10-01T07:22:12.547Z,10.76
2022-10-01T07:23:12.553Z,10.75
2022-10-01T07:24:12.525Z,10.80
2022-10-01T07:25:12.539Z,10.82
2022-10-01T07:26:12.499Z,10.78
2022-10-01T07:27:12.493Z,10.82
2022-10-01T07:28:12.579Z,10.91
2022-10-01T07:29:12.473Z,10.82
2022-10-01T07:30:12.456Z,10.91
2022-10-01T07:31:12.552Z,10.86
2022-10-01T07:32:12.436Z,10.90
2022-10-01T07:33:12.447Z,10.86
2022-10-01T07:34:12.408Z,10.82
2022-10-01T07:35:12.426Z,10.94
2022-10-01T07:36:12.390Z,10.95
2022-10-01T07:37:12.383Z,10.93
2022-10-01T07:38:12.364Z,10.93
2022-10-01T07:39:12.359Z,10.94
2022-10-01T07:40:12.410Z,10.95
2022-10-01T07:41:12.373Z,11.00
2022-10-01T07:42:12.329Z,10.95
2022-10-01T07:43:12.314Z,11.11
2022-10-01T07:44:12.327Z,10.98
2022-10-01T07:45:12.288Z,11.08
2022-10-01T07:46:12.374Z,11.04
2022-10-01T07:47:12.271Z,11.01
2022-10-01T07:48:12.263Z,10.94
2022-10-01T07:49:12.273Z,11.08
2022-10-01T07:50:12.240Z,11.05
2022-10-01T07:51:12.272Z,11.13
2022-10-01T07:52:13.424Z,11.04
2022-10-01T07:53:12.206Z,11.18
2022-10-01T07:54:12.200Z,11.12
2022-10-01T07:55:12.182Z,11.05
2022-10-01T07:56:12.193Z,11.09
2022-10-01T07:57:12.180Z,11.16
2022-10-01T07:58:12.146Z,11.23
2022-10-01T07:59:12.166Z,11.19
2022-10-01T08:00:12.127Z,11.15
2022-10-01T08:01:12.151Z,11.20
2022-10-01T08:02:12.165Z,11.23
2022-10-01T08:03:12.113Z,11.31
2022-10-01T08:04:12.108Z,11.27
2022-10-01T08:05:12.071Z,11.19
2022-10-01T08:06:12.063Z,11.27
2022-10-01T08:07:12.054Z,11.27
2022-10-01T08:08:12.039Z,11.28
2022-10-01T08:09:12.030Z,11.31
2022-10-01T08:10:12.037Z,11.36
2022-10-01T08:11:12.027Z,11.30
2022-10-01T08:12:11.996Z,11.27
2022-10-01T08:13:12.005Z,11.38
2022-10-01T08:14:11.983Z,11.40
2022-10-01T08:15:11.970Z,11.41
2022-10-01T08:16:12.031Z,11.38
2022-10-01T08:17:11.951Z,11.54
2022-10-01T08:18:11.930Z,11.52
2022-10-01T08:19:11.918Z,11.41
2022-10-01T08:20:11.920Z,11.38
2022-10-01T08:21:11.927Z,11.45
2022-10-01T08:22:11.891Z,11.49
2022-10-01T08:23:11.881Z,11.54
2022-10-01T08:24:11.869Z,11.55
2022-10-01T08:25:11.873Z,11.62
2022-10-01T08:26:11.842Z,11.52
2022-10-01T08:27:11.837Z,11.56
2022-10-01T08:28:11.876Z,11.61
2022-10-01T08:29:16.859Z,11.70
2022-10-01T08:30:12.818Z,11.67
2022-10-01T08:31:11.813Z,11.67
2022-10-01T08:32:11.854Z,11.61
2022-10-01T08:33:11.769Z,11.69
2022-10-01T08:34:11.761Z,11.69
2022-10-01T08:35:11.744Z,11.69
2022-10-01T08:36:11.758Z,11.77
2022-10-01T08:37:11.727Z,11.76
2022-10-01T08:38:11.719Z,11.71
2022-10-01T08:39:11.713Z,11.89
2022-10-01T08:40:11.716Z,11.80
2022-10-01T08:41:11.684Z,11.79
2022-10-01T08:42:11.673Z,11.80
2022-10-01T08:43:11.660Z,11.80
2022-10-01T08:44:11.654Z,11.84
2022-10-01T08:45:11.683Z,11.80
2022-10-01T08:46:11.680Z,11.89
2022-10-01T08:47:11.619Z,11.88
2022-10-01T08:48:11.607Z,11.89
2022-10-01T08:49:11.596Z,11.93
2022-10-01T08:50:11.586Z,11.96
2022-10-01T08:51:11.592Z,11.91
2022-10-01T08:52:11.559Z,11.84
2022-10-01T08:53:11.549Z,11.93
2022-10-01T08:54:11.536Z,12.03
2022-10-01T08:55:11.567Z,11.99
2022-10-01T08:56:11.523Z,12.03
2022-10-01T08:57:11.516Z,12.03
2022-10-01T08:58:11.499Z,12.03
2022-10-01T08:59:11.485Z,12.05
2022-10-01T09:00:11.478Z,12.03
2022-10-01T09:01:11.573Z,12.00
2022-10-01T09:02:11.464Z,12.13
2022-10-01T09:03:11.445Z,12.07
2022-10-01T09:04:11.483Z,12.14
2022-10-01T09:05:11.429Z,12.25
2022-10-01T09:06:11.444Z,12.32
2022-10-01T09:07:11.399Z,12.15
2022-10-01T09:08:11.392Z,12.15
2022-10-01T09:09:11.389Z,12.25
2022-10-01T09:10:11.372Z,12.18
2022-10-01T09:11:11.356Z,12.23
2022-10-01T09:12:11.369Z,12.35
2022-10-01T09:13:11.337Z,12.30
2022-10-01T09:14:11.350Z,12.35
2022-10-01T09:15:11.314Z,12.35
2022-10-01T09:16:11.332Z,12.36
2022-10-01T09:17:11.318Z,12.41
2022-10-01T09:18:11.286Z,12.35
2022-10-01T09:19:11.309Z,12.43
2022-10-01T09:20:11.259Z,12.43
2022-10-01T09:21:11.320Z,12.47
2022-10-01T09:22:11.248Z,12.50
2022-10-01T09:23:13.133Z,12.51
2022-10-01T09:24:11.254Z,12.48
2022-10-01T09:25:11.210Z,12.53
2022-10-01T09:26:11.197Z,12.58
2022-10-01T09:27:11.182Z,12.58
2022-10-01T09:28:11.225Z,12.62
2022-10-01T09:29:11.194Z,12.69
2022-10-01T09:30:11.175Z,12.55
2022-10-01T09:31:11.219Z,12.58
2022-10-01T09:32:11.132Z,12.68
2022-10-01T09:33:11.141Z,12.66
2022-10-01T09:34:11.105Z,12.72
2022-10-01T09:35:11.124Z,12.68
2022-10-01T09:36:11.094Z,12.77
2022-10-01T09:37:11.072Z,12.77
2022-10-01T09:38:11.079Z,12.77
2022-10-01T09:39:11.056Z,12.81
2022-10-01T09:40:11.042Z,12.81
2022-10-01T09:41:11.072Z,12.77
2022-10-01T09:42:11.022Z,12.84
2022-10-01T09:43:11.009Z,12.93
2022-10-01T09:44:10.995Z,12.93
2022-10-01T09:45:10.988Z,12.96
2022-10-01T09:46:11.042Z,12.98
2022-10-01T09:47:10.975Z,12.93
2022-10-01T09:48:10.972Z,13.04
2022-10-01T09:49:10.966Z,13.02
2022-10-01T09:50:10.950Z,12.96
2022-10-01T09:51:10.922Z,13.08
2022-10-01T09:52:10.908Z,13.01
2022-10-01T09:53:10.919Z,13.04
2022-10-01T09:54:10.887Z,13.11
2022-10-01T09:55:10.896Z,13.11
2022-10-01T09:56:10.868Z,13.13
2022-10-01T09:57:10.855Z,13.14
2022-10-01T09:58:10.842Z,13.21
2022-10-01T09:59:10.831Z,13.20
2022-10-01T10:00:10.852Z,13.19
2022-10-01T10:01:10.811Z,13.20
2022-10-01T10:02:10.980Z,13.21
2022-10-01T10:03:10.867Z,13.23
2022-10-01T10:04:10.778Z,13.36
2022-10-01T10:05:10.812Z,13.23
2022-10-01T10:06:10.754Z,13.24
2022-10-01T10:07:10.747Z,13.36
2022-10-01T10:08:10.733Z,13.36
2022-10-01T10:09:10.749Z,13.40
2022-10-01T10:10:10.710Z,13.36
2022-10-01T10:11:10.706Z,13.40
2022-10-01T10:12:10.698Z,13.29
2022-10-01T10:13:10.693Z,13.36
2022-10-01T10:14:10.699Z,13.32
2022-10-01T10:15:10.658Z,13.46
2022-10-01T10:16:10.836Z,13.42
2022-10-01T10:17:10.658Z,13.46
2022-10-01T10:18:10.624Z,13.45
2022-10-01T10:19:10.620Z,13.47
2022-10-01T10:20:10.604Z,13.45
2022-10-01T10:21:10.611Z,13.54
2022-10-01T10:22:10.604Z,13.54
2022-10-01T10:23:10.574Z,13.47
2022-10-01T10:24:10.578Z,13.53
2022-10-01T10:25:10.550Z,13.47
2022-10-01T10:26:10.560Z,13.46
2022-10-01T10:27:10.526Z,13.51
2022-10-01T10:28:10.554Z,13.49
2022-10-01T10:29:10.505Z,13.53
2022-10-01T10:30:10.494Z,13.53
2022-10-01T10:31:10.547Z,13.47
2022-10-01T10:32:10.472Z,13.57
2022-10-01T10:33:10.464Z,13.53
2022-10-01T10:34:10.451Z,13.57
2022-10-01T10:35:10.465Z,13.47
2022-10-01T10:36:10.453Z,13.47
2022-10-01T10:37:10.437Z,13.51
2022-10-01T10:38:10.408Z,13.61
2022-10-01T10:39:10.403Z,13.55
2022-10-01T10:40:10.406Z,13.49
2022-10-01T10:41:10.409Z,13.54
2022-10-01T10:42:10.360Z,13.57
2022-10-01T10:43:10.372Z,13.51
2022-10-01T10:44:10.440Z,13.55
2022-10-01T10:45:10.359Z,13.58
2022-10-01T10:46:10.359Z,13.60
2022-10-01T10:47:10.307Z,13.58
2022-10-01T10:48:10.300Z,13.57
2022-10-01T10:49:10.290Z,13.61
2022-10-01T10:50:10.300Z,13.53
2022-10-01T10:51:10.262Z,13.61
2022-10-01T10:52:10.257Z,13.63
2022-10-01T10:53:10.284Z,13.57
2022-10-01T10:54:10.237Z,13.55
2022-10-01T10:55:10.234Z,13.57
2022-10-01T10:56:10.209Z,13.57
2022-10-01T10:57:10.198Z,13.55
2022-10-01T10:58:10.208Z,13.51
2022-10-01T10:59:10.180Z,13.53
2022-10-01T11:00:10.166Z,13.60
2022-10-01T11:01:10.195Z,13.53
2022-10-01T11:02:10.293Z,13.47
2022-10-01T11:03:10.138Z,13.54
2022-10-01T11:04:10.175Z,13.46
2022-10-01T11:05:10.110Z,13.54
2022-10-01T11:06:10.138Z,13.55
2022-10-01T11:07:10.090Z,13.51
2022-10-01T11:08:13.025Z,13.51
2022-10-01T11:09:11.120Z,13.51
2022-10-01T11:10:10.057Z,13.54
2022-10-01T11:11:10.052Z,13.53
2022-10-01T11:12:10.034Z,13.51
2022-10-01T11:13:10.030Z,13.55
2022-10-01T11:14:10.111Z,13.53
2022-10-01T11:15:10.034Z,13.57
2022-10-01T11:16:10.063Z,13.51
2022-10-01T11:17:09.978Z,13.54
2022-10-01T11:18:09.997Z,13.57
2022-10-01T11:19:09.962Z,13.49
2022-10-01T11:20:09.973Z,13.43
2022-10-01T11:21:09.949Z,13.46
2022-10-01T11:22:09.932Z,13.57
2022-10-01T11:23:09.945Z,13.47
2022-10-01T11:24:09.907Z,13.46
2022-10-01T11:25:09.930Z,13.49
2022-10-01T11:26:09.890Z,13.53
2022-10-01T11:27:09.867Z,13.57
2022-10-01T11:28:09.912Z,13.55
2022-10-01T11:29:09.851Z,13.53
2022-10-01T11:30:09.841Z,13.54
2022-10-01T11:31:09.868Z,13.47
2022-10-01T11:32:09.823Z,13.46
2022-10-01T11:33:09.806Z,13.49
2022-10-01T11:34:09.825Z,13.49
2022-10-01T11:35:09.788Z,13.51
2022-10-01T11:36:09.794Z,13.54
2022-10-01T11:37:09.766Z,13.47
2022-10-01T11:38:09.756Z,13.53
2022-10-01T11:39:09.763Z,13.47
2022-10-01T11:40:09.734Z,13.45
2022-10-01T11:41:09.811Z,13.54
2022-10-01T11:42:09.707Z,13.54
2022-10-01T11:43:09.700Z,13.51
2022-10-01T11:44:09.711Z,13.51
2022-10-01T11:45:09.679Z,13.54
2022-10-01T11:46:09.720Z,13.46
2022-10-01T11:47:09.654Z,13.49
2022-10-01T11:48:09.640Z,13.55
2022-10-01T11:49:09.635Z,13.49
2022-10-01T11:50:09.624Z,13.53
2022-10-01T11:51:09.613Z,13.47
2022-10-01T11:52:09.629Z,13.49
2022-10-01T11:53:09.589Z,13.55
2022-10-01T11:54:09.580Z,13.47
2022-10-01T11:55:09.569Z,13.46
2022-10-01T11:56:09.591Z,13.47
2022-10-01T11:57:09.567Z,13.54
2022-10-01T11:58:09.539Z,13.49
2022-10-01T11:59:09.573Z,13.49
2022-10-01T12:00:09.514Z,13.55
2022-10-01T12:01:09.524Z,13.49
2022-10-01T12:02:09.580Z,13.54
2022-10-01T12:03:09.480Z,13.54
2022-10-01T12:04:09.470Z,13.53
2022-10-01T12:05:09.565Z,13.51
2022-10-01T12:06:09.485Z,13.55
2022-10-01T12:07:09.455Z,13.47
2022-10-01T12:08:09.442Z,13.58
2022-10-01T12:09:09.415Z,13.55
2022-10-01T12:10:09.504Z,13.53
2022-10-01T12:11:09.420Z,13.54
2022-10-01T12:12:09.382Z,13.58
2022-10-01T12:13:09.451Z,13.54
2022-10-01T12:14:09.362Z,13.55
2022-10-01T12:15:09.398Z,13.60
2022-10-01T12:16:09.405Z,13.60
2022-10-01T12:17:09.332Z,13.55
2022-10-01T12:18:09.385Z,13.51
2022-10-01T12:19:09.312Z,13.51
2022-10-01T12:20:09.352Z,13.55
2022-10-01T12:21:09.310Z,13.47
2022-10-01T12:22:09.279Z,13.49
2022-10-01T12:23:09.289Z,13.54
2022-10-01T12:24:09.249Z,13.49
2022-10-01T12:25:09.259Z,13.51
2022-10-01T12:26:09.233Z,13.61
2022-10-01T12:27:09.223Z,13.54
2022-10-01T12:28:09.319Z,13.60
2022-10-01T12:29:09.216Z,13.47
2022-10-01T12:30:09.270Z,13.54
2022-10-01T12:31:09.250Z,13.53
2022-10-01T12:32:09.162Z,13.58
2022-10-01T12:33:09.173Z,13.47
2022-10-01T12:34:09.141Z,13.53
2022-10-01T12:35:09.137Z,13.57
2022-10-01T12:36:09.140Z,13.53
2022-10-01T12:37:09.114Z,13.57
2022-10-01T12:38:09.097Z,13.58
2022-10-01T12:39:09.146Z,13.57
2022-10-01T12:40:09.121Z,13.54
2022-10-01T12:41:09.091Z,13.55
2022-10-01T12:42:09.050Z,13.57
2022-10-01T12:43:09.044Z,13.57
2022-10-01T12:44:09.056Z,13.55
2022-10-01T12:45:09.040Z,13.55
2022-10-01T12:46:09.068Z,13.63
2022-10-01T12:47:09.027Z,13.55
2022-10-01T12:48:09.000Z,13.53
2022-10-01T12:49:08.980Z,13.51
2022-10-01T12:50:09.062Z,13.58
2022-10-01T12:51:08.981Z,13.57
2022-10-01T12:52:08.944Z,13.55
2022-10-01T12:53:08.934Z,13.60
2022-10-01T12:54:13.275Z,13.55
2022-10-01T12:55:08.913Z,13.57
2022-10-01T12:56:08.924Z,13.53
2022-10-01T12:57:08.914Z,13.58
2022-10-01T12:58:08.876Z,13.57
2022-10-01T12:59:08.869Z,13.58
2022-10-01T13:00:08.858Z,13.58
2022-10-01T13:01:08.941Z,13.54